sensor_id;sensor_type;location;lat;lon;timestamp;temperature;humidity
32753;DHT22;19121;52.428;10.816;2024-02-26T00:01:27;19.00;45.10
32753;DHT22;19121;52.428;10.816;2024-02-26T00:03:52;19.00;45.00
32753;DHT22;19121;52.428;10.816;2024-02-26T00:06:18;19.00;45.00
32753;DHT22;19121;52.428;10.816;2024-02-26T00:08:44;19.00;45.10
32753;DHT22;19121;52.428;10.816;2024-02-26T00:11:10;19.00;45.10
32753;DHT22;19121;52.428;10.816;2024-02-26T00:13:35;19.00;45.00
32753;DHT22;19121;52.428;10.816;2024-02-26T00:16:01;19.00;45.00
32753;DHT22;19121;52.428;10.816;2024-02-26T00:18:26;19.00;45.00
32753;DHT22;19121;52.428;10.816;2024-02-26T00:20:52;18.90;45.00
32753;DHT22;19121;52.428;10.816;2024-02-26T00:23:17;19.00;45.00
32753;DHT22;19121;52.428;10.816;2024-02-26T00:25:42;18.90;45.00
32753;DHT22;19121;52.428;10.816;2024-02-26T00:28:09;18.90;44.90
32753;DHT22;19121;52.428;10.816;2024-02-26T00:30:34;18.90;45.00
32753;DHT22;19121;52.428;10.816;2024-02-26T00:32:59;19.00;45.00
32753;DHT22;19121;52.428;10.816;2024-02-26T00:35:25;18.90;45.00
32753;DHT22;19121;52.428;10.816;2024-02-26T00:37:50;18.90;45.00
32753;DHT22;19121;52.428;10.816;2024-02-26T00:40:16;19.00;45.00
32753;DHT22;19121;52.428;10.816;2024-02-26T00:42:41;18.90;45.00
32753;DHT22;19121;52.428;10.816;2024-02-26T00:45:11;18.90;44.90
32753;DHT22;19121;52.428;10.816;2024-02-26T00:47:37;19.00;45.00
32753;DHT22;19121;52.428;10.816;2024-02-26T00:50:02;18.90;44.90
32753;DHT22;19121;52.428;10.816;2024-02-26T00:52:28;18.90;44.90
32753;DHT22;19121;52.428;10.816;2024-02-26T00:54:53;18.90;45.00
32753;DHT22;19121;52.428;10.816;2024-02-26T00:57:19;18.90;44.90
32753;DHT22;19121;52.428;10.816;2024-02-26T00:59:44;18.90;44.90
32753;DHT22;19121;52.428;10.816;2024-02-26T01:02:09;18.90;44.90
32753;DHT22;19121;52.428;10.816;2024-02-26T01:04:35;18.90;44.90
32753;DHT22;19121;52.428;10.816;2024-02-26T01:07:00;18.90;44.90
32753;DHT22;19121;52.428;10.816;2024-02-26T01:09:26;18.90;44.90
32753;DHT22;19121;52.428;10.816;2024-02-26T01:11:51;18.90;44.90
32753;DHT22;19121;52.428;10.816;2024-02-26T01:14:16;18.90;44.90
32753;DHT22;19121;52.428;10.816;2024-02-26T01:16:42;18.90;44.90
32753;DHT22;19121;52.428;10.816;2024-02-26T01:19:07;18.90;44.80
32753;DHT22;19121;52.428;10.816;2024-02-26T01:21:33;18.90;44.90
32753;DHT22;19121;52.428;10.816;2024-02-26T01:23:58;18.90;44.80
32753;DHT22;19121;52.428;10.816;2024-02-26T01:26:24;18.90;44.90
32753;DHT22;19121;52.428;10.816;2024-02-26T01:28:49;18.90;44.90
32753;DHT22;19121;52.428;10.816;2024-02-26T01:31:14;18.90;44.80
32753;DHT22;19121;52.428;10.816;2024-02-26T01:33:40;18.90;44.80
32753;DHT22;19121;52.428;10.816;2024-02-26T01:36:05;18.90;44.80
32753;DHT22;19121;52.428;10.816;2024-02-26T01:38:31;18.90;44.80
32753;DHT22;19121;52.428;10.816;2024-02-26T01:40:56;18.90;44.80
32753;DHT22;19121;52.428;10.816;2024-02-26T01:43:22;18.90;44.80
32753;DHT22;19121;52.428;10.816;2024-02-26T01:45:47;18.90;44.80
32753;DHT22;19121;52.428;10.816;2024-02-26T01:48:13;18.90;44.80
32753;DHT22;19121;52.428;10.816;2024-02-26T01:50:38;18.90;44.80
32753;DHT22;19121;52.428;10.816;2024-02-26T01:53:04;18.90;44.80
32753;DHT22;19121;52.428;10.816;2024-02-26T01:55:30;18.80;44.70
32753;DHT22;19121;52.428;10.816;2024-02-26T01:57:55;18.90;44.80
32753;DHT22;19121;52.428;10.816;2024-02-26T02:00:21;18.90;44.80
32753;DHT22;19121;52.428;10.816;2024-02-26T02:02:47;18.80;44.70
32753;DHT22;19121;52.428;10.816;2024-02-26T02:05:16;18.90;44.80
32753;DHT22;19121;52.428;10.816;2024-02-26T02:07:43;18.80;44.70
32753;DHT22;19121;52.428;10.816;2024-02-26T02:10:08;18.90;44.70
32753;DHT22;19121;52.428;10.816;2024-02-26T02:12:35;18.90;44.80
32753;DHT22;19121;52.428;10.816;2024-02-26T02:15:01;18.80;44.70
32753;DHT22;19121;52.428;10.816;2024-02-26T02:17:27;18.90;44.70
32753;DHT22;19121;52.428;10.816;2024-02-26T02:19:53;18.80;44.60
32753;DHT22;19121;52.428;10.816;2024-02-26T02:22:18;18.80;44.60
32753;DHT22;19121;52.428;10.816;2024-02-26T02:24:44;18.80;44.60
32753;DHT22;19121;52.428;10.816;2024-02-26T02:27:10;18.80;44.70
32753;DHT22;19121;52.428;10.816;2024-02-26T02:29:36;18.80;44.60
32753;DHT22;19121;52.428;10.816;2024-02-26T02:32:02;18.80;44.60
32753;DHT22;19121;52.428;10.816;2024-02-26T02:34:28;18.80;44.60
32753;DHT22;19121;52.428;10.816;2024-02-26T02:36:54;18.80;44.70
32753;DHT22;19121;52.428;10.816;2024-02-26T02:39:20;18.80;44.60
32753;DHT22;19121;52.428;10.816;2024-02-26T02:41:46;18.80;44.60
32753;DHT22;19121;52.428;10.816;2024-02-26T02:44:11;18.80;44.60
32753;DHT22;19121;52.428;10.816;2024-02-26T02:46:37;18.80;44.60
32753;DHT22;19121;52.428;10.816;2024-02-26T02:49:02;18.80;44.60
32753;DHT22;19121;52.428;10.816;2024-02-26T02:51:28;18.90;44.60
32753;DHT22;19121;52.428;10.816;2024-02-26T02:53:53;18.80;44.60
32753;DHT22;19121;52.428;10.816;2024-02-26T02:56:18;18.80;44.60
32753;DHT22;19121;52.428;10.816;2024-02-26T02:58:45;18.80;44.60
32753;DHT22;19121;52.428;10.816;2024-02-26T03:01:10;18.80;44.60
32753;DHT22;19121;52.428;10.816;2024-02-26T03:03:36;18.80;44.50
32753;DHT22;19121;52.428;10.816;2024-02-26T03:06:02;18.80;44.50
32753;DHT22;19121;52.428;10.816;2024-02-26T03:08:28;18.80;44.50
32753;DHT22;19121;52.428;10.816;2024-02-26T03:10:54;18.80;44.60
32753;DHT22;19121;52.428;10.816;2024-02-26T03:13:19;18.80;44.50
32753;DHT22;19121;52.428;10.816;2024-02-26T03:15:45;18.80;44.50
32753;DHT22;19121;52.428;10.816;2024-02-26T03:18:10;18.80;44.50
32753;DHT22;19121;52.428;10.816;2024-02-26T03:20:35;18.80;44.40
32753;DHT22;19121;52.428;10.816;2024-02-26T03:23:02;18.80;44.40
32753;DHT22;19121;52.428;10.816;2024-02-26T03:25:28;18.90;44.40
32753;DHT22;19121;52.428;10.816;2024-02-26T03:27:53;18.80;44.30
32753;DHT22;19121;52.428;10.816;2024-02-26T03:30:19;18.90;44.30
32753;DHT22;19121;52.428;10.816;2024-02-26T03:32:44;18.90;44.30
32753;DHT22;19121;52.428;10.816;2024-02-26T03:35:09;18.90;44.20
32753;DHT22;19121;52.428;10.816;2024-02-26T03:37:35;18.90;44.20
32753;DHT22;19121;52.428;10.816;2024-02-26T03:40:00;18.90;44.20
32753;DHT22;19121;52.428;10.816;2024-02-26T03:42:26;18.90;44.20
32753;DHT22;19121;52.428;10.816;2024-02-26T03:44:52;18.90;44.10
32753;DHT22;19121;52.428;10.816;2024-02-26T03:47:17;19.00;44.10
32753;DHT22;19121;52.428;10.816;2024-02-26T03:49:43;19.00;44.10
32753;DHT22;19121;52.428;10.816;2024-02-26T03:52:08;19.00;44.10
32753;DHT22;19121;52.428;10.816;2024-02-26T03:54:33;19.00;44.10
32753;DHT22;19121;52.428;10.816;2024-02-26T03:56:59;19.00;44.10
32753;DHT22;19121;52.428;10.816;2024-02-26T03:59:24;19.00;44.10
32753;DHT22;19121;52.428;10.816;2024-02-26T04:01:50;19.00;44.10
32753;DHT22;19121;52.428;10.816;2024-02-26T04:04:16;19.00;44.00
32753;DHT22;19121;52.428;10.816;2024-02-26T04:06:45;19.00;44.00
32753;DHT22;19121;52.428;10.816;2024-02-26T04:09:11;19.00;44.10
32753;DHT22;19121;52.428;10.816;2024-02-26T04:11:36;19.00;44.00
32753;DHT22;19121;52.428;10.816;2024-02-26T04:14:02;19.00;43.90
32753;DHT22;19121;52.428;10.816;2024-02-26T04:16:28;19.00;44.00
32753;DHT22;19121;52.428;10.816;2024-02-26T04:18:53;18.90;44.00
32753;DHT22;19121;52.428;10.816;2024-02-26T04:21:19;19.00;44.00
32753;DHT22;19121;52.428;10.816;2024-02-26T04:23:45;19.00;43.90
32753;DHT22;19121;52.428;10.816;2024-02-26T04:26:10;18.90;43.90
32753;DHT22;19121;52.428;10.816;2024-02-26T04:28:36;19.00;44.00
32753;DHT22;19121;52.428;10.816;2024-02-26T04:31:01;19.00;44.00
32753;DHT22;19121;52.428;10.816;2024-02-26T04:33:27;18.90;44.00
32753;DHT22;19121;52.428;10.816;2024-02-26T04:35:52;19.00;44.00
32753;DHT22;19121;52.428;10.816;2024-02-26T04:38:18;18.90;44.00
32753;DHT22;19121;52.428;10.816;2024-02-26T04:40:43;18.90;43.90
32753;DHT22;19121;52.428;10.816;2024-02-26T04:43:09;18.90;44.00
32753;DHT22;19121;52.428;10.816;2024-02-26T04:45:34;18.90;44.00
32753;DHT22;19121;52.428;10.816;2024-02-26T04:48:00;19.00;44.00
32753;DHT22;19121;52.428;10.816;2024-02-26T04:50:25;18.90;44.00
32753;DHT22;19121;52.428;10.816;2024-02-26T04:52:50;18.90;43.90
32753;DHT22;19121;52.428;10.816;2024-02-26T04:55:16;18.90;43.90
32753;DHT22;19121;52.428;10.816;2024-02-26T04:57:42;18.90;44.00
32753;DHT22;19121;52.428;10.816;2024-02-26T05:00:07;18.90;43.90
32753;DHT22;19121;52.428;10.816;2024-02-26T05:02:33;18.90;44.00
32753;DHT22;19121;52.428;10.816;2024-02-26T05:05:04;18.90;43.90
32753;DHT22;19121;52.428;10.816;2024-02-26T05:07:29;18.90;43.90
32753;DHT22;19121;52.428;10.816;2024-02-26T05:09:54;18.90;43.90
32753;DHT22;19121;52.428;10.816;2024-02-26T05:12:21;18.90;43.90
32753;DHT22;19121;52.428;10.816;2024-02-26T05:14:46;18.90;43.90
32753;DHT22;19121;52.428;10.816;2024-02-26T05:17:12;18.90;43.90
32753;DHT22;19121;52.428;10.816;2024-02-26T05:19:37;18.90;43.90
32753;DHT22;19121;52.428;10.816;2024-02-26T05:22:02;18.90;43.90
32753;DHT22;19121;52.428;10.816;2024-02-26T05:24:28;18.90;43.90
32753;DHT22;19121;52.428;10.816;2024-02-26T05:26:54;18.90;43.80
32753;DHT22;19121;52.428;10.816;2024-02-26T05:29:20;18.90;43.90
32753;DHT22;19121;52.428;10.816;2024-02-26T05:31:45;18.90;43.90
32753;DHT22;19121;52.428;10.816;2024-02-26T05:34:11;18.90;43.80
32753;DHT22;19121;52.428;10.816;2024-02-26T05:36:36;18.90;43.90
32753;DHT22;19121;52.428;10.816;2024-02-26T05:39:02;18.90;43.80
32753;DHT22;19121;52.428;10.816;2024-02-26T05:41:29;18.90;43.80
32753;DHT22;19121;52.428;10.816;2024-02-26T05:43:54;19.00;43.80
32753;DHT22;19121;52.428;10.816;2024-02-26T05:46:20;18.90;43.80
32753;DHT22;19121;52.428;10.816;2024-02-26T05:48:47;18.90;43.80
32753;DHT22;19121;52.428;10.816;2024-02-26T05:51:12;19.00;43.80
32753;DHT22;19121;52.428;10.816;2024-02-26T05:53:38;18.90;43.70
32753;DHT22;19121;52.428;10.816;2024-02-26T05:56:03;18.90;43.70
32753;DHT22;19121;52.428;10.816;2024-02-26T05:58:29;18.90;43.70
32753;DHT22;19121;52.428;10.816;2024-02-26T06:00:54;18.90;43.70
32753;DHT22;19121;52.428;10.816;2024-02-26T06:03:20;18.90;43.70
32753;DHT22;19121;52.428;10.816;2024-02-26T06:05:45;19.00;43.70
32753;DHT22;19121;52.428;10.816;2024-02-26T06:08:11;18.90;43.70
32753;DHT22;19121;52.428;10.816;2024-02-26T06:10:36;19.00;43.70
32753;DHT22;19121;52.428;10.816;2024-02-26T06:13:02;18.90;43.70
32753;DHT22;19121;52.428;10.816;2024-02-26T06:15:27;18.90;43.70
32753;DHT22;19121;52.428;10.816;2024-02-26T06:17:52;19.00;43.70
32753;DHT22;19121;52.428;10.816;2024-02-26T06:20:18;18.90;43.60
32753;DHT22;19121;52.428;10.816;2024-02-26T06:22:43;19.00;43.70
32753;DHT22;19121;52.428;10.816;2024-02-26T06:25:10;18.90;43.60
32753;DHT22;19121;52.428;10.816;2024-02-26T06:27:35;18.90;43.60
32753;DHT22;19121;52.428;10.816;2024-02-26T06:30:01;18.90;43.60
32753;DHT22;19121;52.428;10.816;2024-02-26T06:32:26;18.90;43.60
32753;DHT22;19121;52.428;10.816;2024-02-26T06:34:55;18.90;43.60
32753;DHT22;19121;52.428;10.816;2024-02-26T06:37:20;19.00;43.60
32753;DHT22;19121;52.428;10.816;2024-02-26T06:39:46;19.00;43.60
32753;DHT22;19121;52.428;10.816;2024-02-26T06:42:11;18.90;43.60
32753;DHT22;19121;52.428;10.816;2024-02-26T06:44:37;19.00;43.60
32753;DHT22;19121;52.428;10.816;2024-02-26T06:47:02;19.00;43.60
32753;DHT22;19121;52.428;10.816;2024-02-26T06:49:29;18.90;43.70
32753;DHT22;19121;52.428;10.816;2024-02-26T06:51:54;18.90;43.80
32753;DHT22;19121;52.428;10.816;2024-02-26T06:54:20;18.80;43.80
32753;DHT22;19121;52.428;10.816;2024-02-26T06:56:45;18.80;43.80
32753;DHT22;19121;52.428;10.816;2024-02-26T06:59:11;18.80;43.70
32753;DHT22;19121;52.428;10.816;2024-02-26T07:01:36;18.80;43.60
32753;DHT22;19121;52.428;10.816;2024-02-26T07:04:02;18.80;43.50
32753;DHT22;19121;52.428;10.816;2024-02-26T07:06:27;18.80;43.30
32753;DHT22;19121;52.428;10.816;2024-02-26T07:08:53;18.90;43.50
32753;DHT22;19121;52.428;10.816;2024-02-26T07:11:19;18.90;43.40
32753;DHT22;19121;52.428;10.816;2024-02-26T07:13:47;18.90;43.30
32753;DHT22;19121;52.428;10.816;2024-02-26T07:16:14;18.90;43.20
32753;DHT22;19121;52.428;10.816;2024-02-26T07:18:40;18.90;43.20
32753;DHT22;19121;52.428;10.816;2024-02-26T07:21:05;18.90;43.20
32753;DHT22;19121;52.428;10.816;2024-02-26T07:23:31;18.90;43.10
32753;DHT22;19121;52.428;10.816;2024-02-26T07:25:56;19.00;43.20
32753;DHT22;19121;52.428;10.816;2024-02-26T07:28:22;19.00;43.20
32753;DHT22;19121;52.428;10.816;2024-02-26T07:30:47;18.90;43.20
32753;DHT22;19121;52.428;10.816;2024-02-26T07:33:12;19.00;43.20
32753;DHT22;19121;52.428;10.816;2024-02-26T07:35:38;19.00;43.20
32753;DHT22;19121;52.428;10.816;2024-02-26T07:38:04;18.90;42.90
32753;DHT22;19121;52.428;10.816;2024-02-26T07:40:29;18.90;42.60
32753;DHT22;19121;52.428;10.816;2024-02-26T07:42:55;18.90;42.50
32753;DHT22;19121;52.428;10.816;2024-02-26T07:45:21;18.90;42.40
32753;DHT22;19121;52.428;10.816;2024-02-26T07:47:47;18.90;42.40
32753;DHT22;19121;52.428;10.816;2024-02-26T07:50:12;18.90;42.50
32753;DHT22;19121;52.428;10.816;2024-02-26T07:52:38;18.90;42.70
32753;DHT22;19121;52.428;10.816;2024-02-26T07:55:03;19.00;42.80
32753;DHT22;19121;52.428;10.816;2024-02-26T07:57:29;19.00;42.90
32753;DHT22;19121;52.428;10.816;2024-02-26T07:59:55;19.10;43.00
32753;DHT22;19121;52.428;10.816;2024-02-26T08:02:20;19.10;43.10
32753;DHT22;19121;52.428;10.816;2024-02-26T08:04:47;19.10;43.00
32753;DHT22;19121;52.428;10.816;2024-02-26T08:07:12;19.20;43.20
32753;DHT22;19121;52.428;10.816;2024-02-26T08:09:38;19.20;43.20
32753;DHT22;19121;52.428;10.816;2024-02-26T08:12:03;19.20;43.20
32753;DHT22;19121;52.428;10.816;2024-02-26T08:14:29;19.30;43.20
32753;DHT22;19121;52.428;10.816;2024-02-26T08:16:54;19.30;43.20
32753;DHT22;19121;52.428;10.816;2024-02-26T08:19:20;19.30;43.30
32753;DHT22;19121;52.428;10.816;2024-02-26T08:21:45;19.30;43.30
32753;DHT22;19121;52.428;10.816;2024-02-26T08:24:11;19.30;43.40
32753;DHT22;19121;52.428;10.816;2024-02-26T08:26:36;19.40;43.50
32753;DHT22;19121;52.428;10.816;2024-02-26T08:29:01;19.40;43.40
32753;DHT22;19121;52.428;10.816;2024-02-26T08:31:27;19.40;43.40
32753;DHT22;19121;52.428;10.816;2024-02-26T08:33:53;19.40;43.40
32753;DHT22;19121;52.428;10.816;2024-02-26T08:36:18;19.40;43.40
32753;DHT22;19121;52.428;10.816;2024-02-26T08:38:44;19.50;43.50
32753;DHT22;19121;52.428;10.816;2024-02-26T08:41:09;19.50;43.40
32753;DHT22;19121;52.428;10.816;2024-02-26T08:43:35;19.50;43.40
32753;DHT22;19121;52.428;10.816;2024-02-26T08:46:01;19.50;43.40
32753;DHT22;19121;52.428;10.816;2024-02-26T08:48:26;19.50;43.50
32753;DHT22;19121;52.428;10.816;2024-02-26T08:50:51;19.50;43.50
32753;DHT22;19121;52.428;10.816;2024-02-26T08:53:17;19.50;43.60
32753;DHT22;19121;52.428;10.816;2024-02-26T08:55:42;19.50;43.60
32753;DHT22;19121;52.428;10.816;2024-02-26T08:58:08;19.50;43.60
32753;DHT22;19121;52.428;10.816;2024-02-26T09:00:33;19.50;43.60
32753;DHT22;19121;52.428;10.816;2024-02-26T09:02:58;19.60;43.60
32753;DHT22;19121;52.428;10.816;2024-02-26T09:05:24;19.60;43.60
32753;DHT22;19121;52.428;10.816;2024-02-26T09:07:50;19.60;43.80
32753;DHT22;19121;52.428;10.816;2024-02-26T09:10:17;19.60;43.70
32753;DHT22;19121;52.428;10.816;2024-02-26T09:12:42;19.60;43.70
32753;DHT22;19121;52.428;10.816;2024-02-26T09:15:08;19.60;43.70
32753;DHT22;19121;52.428;10.816;2024-02-26T09:17:33;19.60;43.70
32753;DHT22;19121;52.428;10.816;2024-02-26T09:19:59;19.70;43.70
32753;DHT22;19121;52.428;10.816;2024-02-26T09:22:25;19.60;43.60
32753;DHT22;19121;52.428;10.816;2024-02-26T09:24:50;19.70;43.70
32753;DHT22;19121;52.428;10.816;2024-02-26T09:27:17;19.70;43.60
32753;DHT22;19121;52.428;10.816;2024-02-26T09:29:43;19.70;43.60
32753;DHT22;19121;52.428;10.816;2024-02-26T09:32:08;19.70;43.70
32753;DHT22;19121;52.428;10.816;2024-02-26T09:34:33;19.70;43.60
32753;DHT22;19121;52.428;10.816;2024-02-26T09:36:59;19.70;43.70
32753;DHT22;19121;52.428;10.816;2024-02-26T09:39:25;19.70;43.80
32753;DHT22;19121;52.428;10.816;2024-02-26T09:41:51;19.70;43.80
32753;DHT22;19121;52.428;10.816;2024-02-26T09:44:18;19.80;43.70
32753;DHT22;19121;52.428;10.816;2024-02-26T09:46:44;19.80;43.70
32753;DHT22;19121;52.428;10.816;2024-02-26T09:49:10;19.80;43.70
32753;DHT22;19121;52.428;10.816;2024-02-26T09:51:36;19.80;43.60
32753;DHT22;19121;52.428;10.816;2024-02-26T09:54:02;19.80;43.70
32753;DHT22;19121;52.428;10.816;2024-02-26T09:56:27;19.80;43.70
32753;DHT22;19121;52.428;10.816;2024-02-26T09:58:54;19.80;43.60
32753;DHT22;19121;52.428;10.816;2024-02-26T10:01:21;19.80;43.60
32753;DHT22;19121;52.428;10.816;2024-02-26T10:03:48;19.80;43.60
32753;DHT22;19121;52.428;10.816;2024-02-26T10:06:14;19.80;43.60
32753;DHT22;19121;52.428;10.816;2024-02-26T10:08:39;19.80;43.60
32753;DHT22;19121;52.428;10.816;2024-02-26T10:11:08;19.80;43.60
32753;DHT22;19121;52.428;10.816;2024-02-26T10:13:36;19.80;43.60
32753;DHT22;19121;52.428;10.816;2024-02-26T10:16:02;19.80;43.50
32753;DHT22;19121;52.428;10.816;2024-02-26T10:21:30;19.90;43.60
32753;DHT22;19121;52.428;10.816;2024-02-26T10:23:55;19.90;43.50
32753;DHT22;19121;52.428;10.816;2024-02-26T10:26:21;19.90;43.50
32753;DHT22;19121;52.428;10.816;2024-02-26T10:28:47;19.90;43.50
32753;DHT22;19121;52.428;10.816;2024-02-26T10:31:13;19.90;43.50
32753;DHT22;19121;52.428;10.816;2024-02-26T10:33:48;19.90;43.50
32753;DHT22;19121;52.428;10.816;2024-02-26T10:36:14;19.90;43.50
32753;DHT22;19121;52.428;10.816;2024-02-26T10:38:39;19.90;43.40
32753;DHT22;19121;52.428;10.816;2024-02-26T10:41:09;19.90;43.50
32753;DHT22;19121;52.428;10.816;2024-02-26T10:43:38;19.90;43.40
32753;DHT22;19121;52.428;10.816;2024-02-26T10:46:03;19.90;43.50
32753;DHT22;19121;52.428;10.816;2024-02-26T10:48:28;20.00;43.50
32753;DHT22;19121;52.428;10.816;2024-02-26T10:50:54;20.00;43.50
32753;DHT22;19121;52.428;10.816;2024-02-26T10:53:21;20.00;43.50
32753;DHT22;19121;52.428;10.816;2024-02-26T10:55:57;20.00;43.50
32753;DHT22;19121;52.428;10.816;2024-02-26T10:58:24;20.00;43.50
32753;DHT22;19121;52.428;10.816;2024-02-26T11:00:50;20.00;43.50
32753;DHT22;19121;52.428;10.816;2024-02-26T11:03:16;20.00;43.50
32753;DHT22;19121;52.428;10.816;2024-02-26T11:05:51;20.00;43.50
32753;DHT22;19121;52.428;10.816;2024-02-26T11:08:19;20.00;43.50
32753;DHT22;19121;52.428;10.816;2024-02-26T11:10:50;20.00;43.50
32753;DHT22;19121;52.428;10.816;2024-02-26T11:13:18;20.00;43.50
32753;DHT22;19121;52.428;10.816;2024-02-26T11:15:44;20.00;43.50
32753;DHT22;19121;52.428;10.816;2024-02-26T11:18:12;20.10;43.60
32753;DHT22;19121;52.428;10.816;2024-02-26T11:20:38;20.00;43.50
32753;DHT22;19121;52.428;10.816;2024-02-26T11:23:05;20.00;43.50
32753;DHT22;19121;52.428;10.816;2024-02-26T11:25:31;20.10;43.50
32753;DHT22;19121;52.428;10.816;2024-02-26T11:27:58;20.10;43.50
32753;DHT22;19121;52.428;10.816;2024-02-26T11:30:27;20.10;43.50
32753;DHT22;19121;52.428;10.816;2024-02-26T11:32:55;20.10;43.50
32753;DHT22;19121;52.428;10.816;2024-02-26T11:35:21;20.10;43.50
32753;DHT22;19121;52.428;10.816;2024-02-26T11:37:53;20.10;43.50
32753;DHT22;19121;52.428;10.816;2024-02-26T11:40:19;20.10;43.40
32753;DHT22;19121;52.428;10.816;2024-02-26T11:42:44;20.10;43.40
32753;DHT22;19121;52.428;10.816;2024-02-26T11:47:57;20.10;43.30
32753;DHT22;19121;52.428;10.816;2024-02-26T11:50:35;20.10;43.30
32753;DHT22;19121;52.428;10.816;2024-02-26T11:55:45;20.20;43.20
32753;DHT22;19121;52.428;10.816;2024-02-26T11:58:10;20.10;43.20
32753;DHT22;19121;52.428;10.816;2024-02-26T12:00:36;20.10;43.20
32753;DHT22;19121;52.428;10.816;2024-02-26T12:03:01;20.20;43.20
32753;DHT22;19121;52.428;10.816;2024-02-26T12:05:31;20.20;43.20
32753;DHT22;19121;52.428;10.816;2024-02-26T12:08:03;20.20;43.20
32753;DHT22;19121;52.428;10.816;2024-02-26T12:10:38;20.20;43.20
32753;DHT22;19121;52.428;10.816;2024-02-26T12:13:06;20.20;43.20
32753;DHT22;19121;52.428;10.816;2024-02-26T12:15:38;20.20;43.20
32753;DHT22;19121;52.428;10.816;2024-02-26T12:18:05;20.20;43.20
32753;DHT22;19121;52.428;10.816;2024-02-26T12:20:30;20.20;43.20
32753;DHT22;19121;52.428;10.816;2024-02-26T12:22:56;20.20;43.20
32753;DHT22;19121;52.428;10.816;2024-02-26T12:25:23;20.20;43.20
32753;DHT22;19121;52.428;10.816;2024-02-26T12:27:49;20.20;43.40
32753;DHT22;19121;52.428;10.816;2024-02-26T12:30:14;20.20;43.30
32753;DHT22;19121;52.428;10.816;2024-02-26T12:32:40;20.20;43.40
32753;DHT22;19121;52.428;10.816;2024-02-26T12:35:05;20.20;43.40
32753;DHT22;19121;52.428;10.816;2024-02-26T12:37:31;20.20;43.40
32753;DHT22;19121;52.428;10.816;2024-02-26T12:39:57;20.20;43.50
32753;DHT22;19121;52.428;10.816;2024-02-26T12:42:22;20.20;43.50
32753;DHT22;19121;52.428;10.816;2024-02-26T12:44:49;20.20;43.60
32753;DHT22;19121;52.428;10.816;2024-02-26T12:47:14;20.20;43.70
32753;DHT22;19121;52.428;10.816;2024-02-26T12:49:48;20.20;43.80
32753;DHT22;19121;52.428;10.816;2024-02-26T12:52:14;20.20;43.80
32753;DHT22;19121;52.428;10.816;2024-02-26T12:54:39;20.10;43.80
32753;DHT22;19121;52.428;10.816;2024-02-26T12:57:06;20.20;43.90
32753;DHT22;19121;52.428;10.816;2024-02-26T12:59:34;20.20;44.00
32753;DHT22;19121;52.428;10.816;2024-02-26T13:01:59;20.20;44.00
32753;DHT22;19121;52.428;10.816;2024-02-26T13:04:26;20.10;44.00
32753;DHT22;19121;52.428;10.816;2024-02-26T13:06:53;20.10;44.00
32753;DHT22;19121;52.428;10.816;2024-02-26T13:09:18;20.10;44.00
32753;DHT22;19121;52.428;10.816;2024-02-26T13:11:44;20.10;44.10
32753;DHT22;19121;52.428;10.816;2024-02-26T13:14:22;20.10;44.00
32753;DHT22;19121;52.428;10.816;2024-02-26T13:16:55;20.10;44.00
32753;DHT22;19121;52.428;10.816;2024-02-26T13:19:21;20.10;44.10
32753;DHT22;19121;52.428;10.816;2024-02-26T13:21:46;20.10;44.10
32753;DHT22;19121;52.428;10.816;2024-02-26T13:24:12;20.10;44.10
32753;DHT22;19121;52.428;10.816;2024-02-26T13:26:38;20.10;44.10
32753;DHT22;19121;52.428;10.816;2024-02-26T13:29:04;20.10;44.10
32753;DHT22;19121;52.428;10.816;2024-02-26T13:31:29;20.20;44.10
32753;DHT22;19121;52.428;10.816;2024-02-26T13:33:55;20.20;44.10
32753;DHT22;19121;52.428;10.816;2024-02-26T13:36:24;20.20;44.10
32753;DHT22;19121;52.428;10.816;2024-02-26T13:38:53;20.20;44.10
32753;DHT22;19121;52.428;10.816;2024-02-26T13:41:20;20.20;44.20
32753;DHT22;19121;52.428;10.816;2024-02-26T13:43:46;20.20;44.10
32753;DHT22;19121;52.428;10.816;2024-02-26T13:46:12;20.20;44.20
32753;DHT22;19121;52.428;10.816;2024-02-26T13:48:39;20.20;44.10
32753;DHT22;19121;52.428;10.816;2024-02-26T13:51:04;20.20;44.10
32753;DHT22;19121;52.428;10.816;2024-02-26T13:53:30;20.20;44.10
32753;DHT22;19121;52.428;10.816;2024-02-26T13:55:55;20.20;44.20
32753;DHT22;19121;52.428;10.816;2024-02-26T13:58:22;20.20;44.10
32753;DHT22;19121;52.428;10.816;2024-02-26T14:00:49;20.20;44.20
32753;DHT22;19121;52.428;10.816;2024-02-26T14:03:14;20.20;44.20
32753;DHT22;19121;52.428;10.816;2024-02-26T14:05:41;20.20;44.30
32753;DHT22;19121;52.428;10.816;2024-02-26T14:08:07;20.20;44.30
32753;DHT22;19121;52.428;10.816;2024-02-26T14:10:32;20.20;44.30
32753;DHT22;19121;52.428;10.816;2024-02-26T14:12:58;20.20;44.30
32753;DHT22;19121;52.428;10.816;2024-02-26T14:15:24;20.20;44.20
32753;DHT22;19121;52.428;10.816;2024-02-26T14:17:50;20.20;44.10
32753;DHT22;19121;52.428;10.816;2024-02-26T14:20:21;20.30;44.20
32753;DHT22;19121;52.428;10.816;2024-02-26T14:22:47;20.20;44.20
32753;DHT22;19121;52.428;10.816;2024-02-26T14:25:13;20.20;44.20
32753;DHT22;19121;52.428;10.816;2024-02-26T14:27:38;20.20;44.20
32753;DHT22;19121;52.428;10.816;2024-02-26T14:30:04;20.20;44.20
32753;DHT22;19121;52.428;10.816;2024-02-26T14:32:29;20.20;44.30
32753;DHT22;19121;52.428;10.816;2024-02-26T14:35:00;20.20;44.20
32753;DHT22;19121;52.428;10.816;2024-02-26T14:37:25;20.20;44.20
32753;DHT22;19121;52.428;10.816;2024-02-26T14:39:51;20.20;44.30
32753;DHT22;19121;52.428;10.816;2024-02-26T14:42:18;20.20;44.30
32753;DHT22;19121;52.428;10.816;2024-02-26T14:44:43;20.20;44.30
32753;DHT22;19121;52.428;10.816;2024-02-26T14:47:09;20.20;44.30
32753;DHT22;19121;52.428;10.816;2024-02-26T14:49:35;20.20;44.40
32753;DHT22;19121;52.428;10.816;2024-02-26T14:52:00;20.20;44.40
32753;DHT22;19121;52.428;10.816;2024-02-26T14:54:26;20.20;44.30
32753;DHT22;19121;52.428;10.816;2024-02-26T14:56:51;20.20;44.30
32753;DHT22;19121;52.428;10.816;2024-02-26T14:59:17;20.20;44.30
32753;DHT22;19121;52.428;10.816;2024-02-26T15:01:42;20.20;44.30
32753;DHT22;19121;52.428;10.816;2024-02-26T15:04:08;20.20;44.40
32753;DHT22;19121;52.428;10.816;2024-02-26T15:06:33;20.20;44.40
32753;DHT22;19121;52.428;10.816;2024-02-26T15:09:00;20.20;44.40
32753;DHT22;19121;52.428;10.816;2024-02-26T15:11:25;20.20;44.50
32753;DHT22;19121;52.428;10.816;2024-02-26T15:13:51;20.20;44.40
32753;DHT22;19121;52.428;10.816;2024-02-26T15:16:18;20.20;44.50